Time;durP1;ratioP1;P1;durP2;ratioP2;P2;SDS_P1;SDS_P2;PMS_P1;PMS_P2;Temp;Humidity;BMP_temperature;BMP_pressure;BME280_temperature;BME280_humidity;BME280_pressure;Samples;Min_cycle;Max_cycle;Signal;HPM_P1;HPM_P2
2022/09/13 00:00:51;;;;;;;7.22;2.55;;;18.50;99.90;;;;;;5012056;28;20097;-58
2022/09/13 00:03:18;;;;;;;6.80;2.53;;;18.60;99.90;;;;;;5012210;28;20046;-60
2022/09/13 00:05:43;;;;;;;5.78;2.22;;;18.60;99.90;;;;;;5012309;28;20022;-54
2022/09/13 00:08:09;;;;;;;4.22;2.42;;;18.60;99.90;;;;;;5011132;28;20033;-47
2022/09/13 00:10:37;;;;;;;5.03;2.40;;;18.60;99.90;;;;;;5010607;28;20045;-50
2022/09/13 00:13:04;;;;;;;5.05;2.58;;;18.60;99.90;;;;;;5010894;28;20032;-51
2022/09/13 00:15:30;;;;;;;5.18;2.40;;;18.60;99.90;;;;;;4993997;28;20465;-50
2022/09/13 00:17:56;;;;;;;10.20;2.60;;;18.60;99.90;;;;;;5011386;28;20056;-53
2022/09/13 00:20:22;;;;;;;5.70;2.35;;;18.60;99.90;;;;;;5011571;28;20393;-45
2022/09/13 00:22:47;;;;;;;10.40;2.67;;;18.60;99.90;;;;;;5010601;28;20028;-52
2022/09/13 00:25:13;;;;;;;4.80;2.13;;;18.60;99.90;;;;;;5011549;28;20030;-45
2022/09/13 00:27:39;;;;;;;5.68;2.40;;;18.60;99.90;;;;;;5011775;28;20026;-47
2022/09/13 00:30:06;;;;;;;5.97;2.65;;;18.60;99.90;;;;;;5010327;28;20029;-46
2022/09/13 00:32:34;;;;;;;6.90;2.50;;;18.50;99.90;;;;;;5011635;28;20022;-45
2022/09/13 00:35:04;;;;;;;4.18;2.33;;;18.50;99.90;;;;;;5001818;28;20078;-46
2022/09/13 00:37:32;;;;;;;5.35;2.40;;;18.50;99.90;;;;;;5007373;28;20037;-45
2022/09/13 00:39:58;;;;;;;4.80;2.70;;;18.50;99.90;;;;;;5011260;28;20073;-50
2022/09/13 00:42:25;;;;;;;5.15;2.70;;;18.50;99.90;;;;;;5011546;28;20529;-49
2022/09/13 00:45:13;;;;;;;7.65;2.83;;;18.50;99.90;;;;;;5011444;28;20401;-52
2022/09/13 00:47:41;;;;;;;4.82;2.50;;;18.50;99.90;;;;;;5011254;28;20037;-46
2022/09/13 00:50:11;;;;;;;5.07;2.20;;;18.50;99.90;;;;;;5010873;28;20065;-53
2022/09/13 00:52:39;;;;;;;3.80;2.00;;;18.40;99.90;;;;;;5011248;28;20032;-48
2022/09/13 00:55:10;;;;;;;5.20;2.30;;;18.40;99.90;;;;;;5011363;28;20084;-56
2022/09/13 00:57:38;;;;;;;8.80;2.75;;;18.40;99.90;;;;;;5011248;28;20061;-53
2022/09/13 01:00:10;;;;;;;5.20;2.17;;;18.40;99.90;;;;;;5011193;28;20057;-55
2022/09/13 01:02:41;;;;;;;4.38;2.05;;;18.50;99.90;;;;;;5011336;28;20026;-48
2022/09/13 01:05:08;;;;;;;6.13;2.33;;;18.50;99.90;;;;;;5011154;28;20448;-54
2022/09/13 01:07:34;;;;;;;7.70;2.53;;;18.40;99.90;;;;;;5011311;28;20060;-46
2022/09/13 01:10:03;;;;;;;4.35;2.20;;;18.40;99.90;;;;;;5010746;28;20034;-48
2022/09/13 01:12:58;;;;;;;5.45;2.20;;;18.40;99.90;;;;;;5010442;28;20029;-49
2022/09/13 01:15:24;;;;;;;6.00;2.47;;;18.40;99.90;;;;;;4994250;28;20034;-50
2022/09/13 01:17:53;;;;;;;3.15;2.03;;;18.40;99.90;;;;;;5009937;28;20049;-50
2022/09/13 01:20:22;;;;;;;3.20;2.00;;;18.30;99.90;;;;;;5010235;28;20030;-44
2022/09/13 01:23:27;;;;;;;4.93;2.17;;;18.30;99.90;;;;;;5010509;28;20569;-47
2022/09/13 01:26:11;;;;;;;4.25;2.10;;;18.30;99.90;;;;;;4999488;28;20018;-49
2022/09/13 01:28:55;;;;;;;3.78;2.20;;;18.30;99.90;;;;;;5010806;28;20068;-48
2022/09/13 01:31:24;;;;;;;5.47;2.35;;;18.30;99.90;;;;;;5011042;28;20101;-48
2022/09/13 01:34:05;;;;;;;4.13;2.22;;;18.30;99.90;;;;;;5010326;28;20026;-52
2022/09/13 01:37:14;;;;;;;4.47;2.15;;;18.30;99.90;;;;;;4999201;28;20428;-49
2022/09/13 01:40:05;;;;;;;3.53;2.00;;;18.20;99.90;;;;;;5010092;28;20037;-45
2022/09/13 01:42:47;;;;;;;4.45;2.05;;;18.20;99.90;;;;;;5014054;28;20030;-55
2022/09/13 01:45:16;;;;;;;7.13;2.45;;;18.20;99.90;;;;;;5014871;28;20072;-53
2022/09/13 01:47:48;;;;;;;5.95;2.53;;;18.20;99.90;;;;;;5014544;28;20084;-52
2022/09/13 01:50:40;;;;;;;7.15;1.90;;;18.20;99.90;;;;;;5014674;28;20358;-52
2022/09/13 01:53:12;;;;;;;4.07;2.17;;;18.10;99.90;;;;;;5011888;28;20039;-44
2022/09/13 01:55:44;;;;;;;3.65;1.95;;;18.10;99.90;;;;;;5014593;28;20064;-48
2022/09/13 01:58:45;;;;;;;4.88;2.03;;;18.10;99.90;;;;;;5014369;28;20034;-44
2022/09/13 02:01:26;;;;;;;5.65;2.20;;;18.10;99.90;;;;;;5011989;28;20037;-54
2022/09/13 02:03:54;;;;;;;4.55;2.00;;;18.20;99.90;;;;;;4996750;28;20504;-53
2022/09/13 02:06:24;;;;;;;4.30;2.13;;;18.10;99.90;;;;;;5014196;28;20519;-46
2022/09/13 02:08:55;;;;;;;4.60;2.20;;;18.10;99.90;;;;;;5014109;28;20102;-50
2022/09/13 02:11:22;;;;;;;4.15;2.25;;;18.10;99.90;;;;;;5014155;28;20046;-48
2022/09/13 02:14:06;;;;;;;4.68;1.80;;;18.10;99.90;;;;;;5014177;28;20038;-51
2022/09/13 02:16:45;;;;;;;4.03;2.05;;;18.00;99.90;;;;;;5012534;28;20315;-55
2022/09/13 02:19:17;;;;;;;7.65;2.50;;;18.00;99.90;;;;;;4998323;28;20030;-54
2022/09/13 02:21:48;;;;;;;4.18;2.20;;;18.00;99.90;;;;;;5012829;28;20034;-51
2022/09/13 02:24:25;;;;;;;3.33;2.03;;;18.00;99.90;;;;;;5013172;28;20053;-54
2022/09/13 02:26:54;;;;;;;3.03;2.00;;;18.00;99.90;;;;;;5009334;28;20093;-45
2022/09/13 02:29:23;;;;;;;5.45;2.55;;;18.00;99.90;;;;;;5000464;28;20118;-53
2022/09/13 02:31:54;;;;;;;6.47;2.60;;;18.00;99.90;;;;;;4997044;28;20022;-48
2022/09/13 02:34:30;;;;;;;5.97;2.40;;;18.00;99.90;;;;;;5010019;28;20033;-50
2022/09/13 02:36:57;;;;;;;5.10;2.53;;;18.00;99.90;;;;;;4999974;28;20027;-55
2022/09/13 02:39:26;;;;;;;4.82;2.72;;;18.00;99.90;;;;;;4998994;28;20121;-54
2022/09/13 02:41:57;;;;;;;4.57;2.70;;;18.00;99.90;;;;;;5013476;28;20061;-46
2022/09/13 02:44:26;;;;;;;6.07;3.38;;;18.00;99.90;;;;;;5005631;28;20034;-44
2022/09/13 02:47:22;;;;;;;4.63;3.10;;;18.00;99.90;;;;;;5007880;28;20057;-44
2022/09/13 02:49:58;;;;;;;9.93;3.30;;;18.00;99.90;;;;;;5013604;28;20028;-43
2022/09/13 02:52:33;;;;;;;5.80;3.30;;;18.00;99.90;;;;;;5012475;28;20054;-47
2022/09/13 02:55:10;;;;;;;5.65;3.22;;;18.00;99.90;;;;;;5013255;28;20544;-44
2022/09/13 02:57:41;;;;;;;6.75;3.30;;;18.00;99.90;;;;;;5013379;28;20096;-44
2022/09/13 03:00:08;;;;;;;5.97;3.17;;;17.90;99.90;;;;;;4995565;28;20104;-49
2022/09/13 03:02:37;;;;;;;7.03;3.05;;;18.00;99.90;;;;;;5012954;28;20045;-44
2022/09/13 03:05:03;;;;;;;5.22;3.00;;;18.10;99.90;;;;;;5013247;28;20029;-47
2022/09/13 03:07:28;;;;;;;6.03;3.03;;;18.10;99.90;;;;;;5013196;28;20041;-43
2022/09/13 03:10:00;;;;;;;5.40;2.95;;;18.20;99.90;;;;;;5013056;28;20045;-43
2022/09/13 03:12:28;;;;;;;5.57;3.15;;;18.20;99.90;;;;;;5013116;28;20022;-44
2022/09/13 03:15:13;;;;;;;5.40;3.27;;;18.30;99.90;;;;;;4995598;28;20026;-51
2022/09/13 03:17:52;;;;;;;6.68;3.78;;;18.40;99.90;;;;;;5012876;28;20485;-50
2022/09/13 03:20:24;;;;;;;7.82;3.78;;;18.50;99.90;;;;;;5012905;28;20034;-49
2022/09/13 03:23:25;;;;;;;8.10;3.85;;;18.50;99.90;;;;;;5011709;28;20041;-52
2022/09/13 03:25:56;;;;;;;8.23;3.40;;;18.60;99.90;;;;;;5006072;28;20064;-54
2022/09/13 03:28:31;;;;;;;6.03;3.35;;;18.60;99.90;;;;;;4994178;28;20053;-51
2022/09/13 03:31:12;;;;;;;7.63;3.35;;;18.70;99.90;;;;;;5012431;28;20018;-50
2022/09/13 03:33:44;;;;;;;5.80;3.40;;;18.70;99.90;;;;;;4999207;28;20073;-50
2022/09/13 03:36:34;;;;;;;6.28;3.63;;;18.80;99.90;;;;;;4999809;28;20469;-50
2022/09/13 03:39:21;;;;;;;5.93;3.42;;;18.80;99.90;;;;;;5000503;28;20040;-50
2022/09/13 03:41:52;;;;;;;5.90;3.35;;;18.80;99.90;;;;;;5012555;28;20648;-51
2022/09/13 03:44:20;;;;;;;6.97;3.60;;;18.80;99.90;;;;;;5012088;28;20021;-47
2022/09/13 03:46:51;;;;;;;11.13;3.65;;;18.80;99.90;;;;;;5012473;28;20066;-46
2022/09/13 03:49:19;;;;;;;7.63;3.63;;;18.80;99.90;;;;;;5011862;28;20500;-47
2022/09/13 03:51:47;;;;;;;6.95;3.28;;;18.90;99.90;;;;;;5012283;28;20543;-49
2022/09/13 03:54:27;;;;;;;6.82;3.45;;;18.90;99.90;;;;;;5012712;28;20026;-52
2022/09/13 03:57:07;;;;;;;8.20;4.03;;;18.90;99.90;;;;;;5012242;28;20137;-50
2022/09/13 03:59:35;;;;;;;8.43;3.35;;;18.90;99.90;;;;;;5012213;28;20624;-49
2022/09/13 04:02:01;;;;;;;7.30;3.40;;;18.90;99.90;;;;;;5008866;28;20034;-48
2022/09/13 04:04:27;;;;;;;7.32;3.55;;;18.90;99.90;;;;;;4991830;28;20026;-53
2022/09/13 04:06:54;;;;;;;10.38;4.35;;;18.90;99.90;;;;;;4992435;28;20030;-48
2022/09/13 04:09:19;;;;;;;6.03;3.85;;;18.90;99.90;;;;;;4992388;28;20060;-51
2022/09/13 04:11:45;;;;;;;7.07;3.65;;;18.90;99.90;;;;;;4992572;28;20393;-47
2022/09/13 04:14:11;;;;;;;6.53;3.55;;;18.90;99.90;;;;;;4992224;28;20026;-45
2022/09/13 04:16:36;;;;;;;6.05;3.42;;;18.90;99.90;;;;;;4996674;28;20088;-49
2022/09/13 04:19:02;;;;;;;7.82;3.78;;;18.90;99.90;;;;;;5003624;28;20033;-54
2022/09/13 04:21:27;;;;;;;6.28;3.92;;;18.90;99.90;;;;;;4993166;28;20026;-47
2022/09/13 04:23:53;;;;;;;10.82;4.32;;;18.90;99.90;;;;;;5010845;28;20036;-49
2022/09/13 04:26:19;;;;;;;8.20;4.05;;;18.90;99.90;;;;;;5009841;28;20400;-47
2022/09/13 04:28:44;;;;;;;7.65;4.00;;;18.90;99.90;;;;;;5007279;28;20030;-46
2022/09/13 04:31:10;;;;;;;8.35;3.80;;;18.90;99.90;;;;;;5004061;28;20033;-49
2022/09/13 04:33:36;;;;;;;6.47;3.85;;;18.90;99.90;;;;;;5003666;28;20025;-53
2022/09/13 04:36:01;;;;;;;8.27;4.22;;;18.90;99.90;;;;;;4995894;28;20022;-53
2022/09/13 04:38:27;;;;;;;9.77;4.57;;;18.90;99.90;;;;;;5004654;28;20041;-51
2022/09/13 04:40:54;;;;;;;9.10;4.95;;;18.90;99.90;;;;;;5005122;28;20038;-49
2022/09/13 04:43:21;;;;;;;9.05;5.22;;;18.90;99.90;;;;;;4984248;28;20025;-53
2022/09/13 04:45:46;;;;;;;7.97;5.30;;;18.90;99.90;;;;;;4998863;28;20560;-48
2022/09/13 04:48:12;;;;;;;7.20;4.88;;;18.90;99.90;;;;;;4996320;28;20058;-52
2022/09/13 04:50:38;;;;;;;10.07;4.88;;;18.90;99.90;;;;;;5000498;28;20036;-47
2022/09/13 04:53:04;;;;;;;6.80;4.50;;;18.90;99.90;;;;;;4992006;28;20026;-48
2022/09/13 04:55:29;;;;;;;9.43;5.40;;;18.90;99.90;;;;;;4997525;28;20025;-43
2022/09/13 04:57:55;;;;;;;9.73;5.28;;;18.90;99.90;;;;;;4999750;28;20045;-50
2022/09/13 05:00:21;;;;;;;9.05;5.72;;;18.90;99.90;;;;;;4991003;28;20294;-50
2022/09/13 05:02:47;;;;;;;10.52;5.70;;;18.90;99.90;;;;;;4991902;28;20069;-50
2022/09/13 05:05:13;;;;;;;7.18;5.15;;;18.90;99.90;;;;;;4991634;28;20401;-55
2022/09/13 05:07:39;;;;;;;7.95;5.28;;;18.90;99.90;;;;;;4990778;28;20130;-53
2022/09/13 05:10:05;;;;;;;9.57;6.40;;;18.80;99.90;;;;;;4991442;28;20185;-51
2022/09/13 05:12:31;;;;;;;8.23;4.97;;;18.90;99.90;;;;;;4990544;28;20018;-53
2022/09/13 05:14:56;;;;;;;9.43;6.35;;;18.80;99.90;;;;;;4991318;28;20045;-45
2022/09/13 05:17:22;;;;;;;8.55;5.70;;;18.80;99.90;;;;;;4996992;28;20022;-54
2022/09/13 05:19:48;;;;;;;10.80;5.57;;;18.80;99.90;;;;;;4998104;28;20030;-47
2022/09/13 05:22:13;;;;;;;10.32;5.82;;;18.80;99.90;;;;;;4998211;28;20033;-51
2022/09/13 05:24:39;;;;;;;10.05;5.90;;;18.80;99.90;;;;;;4997732;28;20026;-52
2022/09/13 05:27:05;;;;;;;10.02;5.93;;;18.80;99.90;;;;;;4997975;28;20029;-50
2022/09/13 05:29:30;;;;;;;8.63;5.85;;;18.80;99.90;;;;;;4997711;28;20026;-51
2022/09/13 05:31:56;;;;;;;11.10;6.65;;;18.80;99.90;;;;;;5003153;28;20485;-55
2022/09/13 05:34:21;;;;;;;11.32;6.63;;;18.70;99.90;;;;;;4996679;28;20166;-53
2022/09/13 05:36:49;;;;;;;10.32;6.90;;;18.70;99.90;;;;;;4998537;28;20026;-50
2022/09/13 05:39:21;;;;;;;10.88;7.30;;;18.70;99.90;;;;;;5016583;28;20538;-55
2022/09/13 05:41:47;;;;;;;10.52;8.00;;;18.70;99.90;;;;;;5016673;28;20022;-49
2022/09/13 05:44:13;;;;;;;14.77;8.60;;;18.70;99.90;;;;;;5017172;28;20049;-49
2022/09/13 05:46:38;;;;;;;14.40;9.15;;;18.70;99.90;;;;;;5016835;28;20030;-50
2022/09/13 05:49:04;;;;;;;12.23;8.80;;;18.70;99.90;;;;;;5017462;28;20030;-50
2022/09/13 05:51:30;;;;;;;14.75;9.45;;;18.70;99.90;;;;;;5017371;28;20053;-51
2022/09/13 05:53:57;;;;;;;18.73;9.45;;;18.70;99.90;;;;;;5016876;28;20034;-55
2022/09/13 05:56:26;;;;;;;13.52;9.15;;;18.70;99.90;;;;;;5017411;28;20030;-52
2022/09/13 05:58:52;;;;;;;16.85;9.57;;;18.70;99.90;;;;;;5016542;28;20038;-52
2022/09/13 06:01:20;;;;;;;13.10;9.20;;;18.70;99.90;;;;;;5017232;28;20037;-48
2022/09/13 06:03:50;;;;;;;15.85;10.30;;;18.70;99.90;;;;;;5017195;28;20080;-43
2022/09/13 06:06:16;;;;;;;16.75;10.38;;;18.70;99.90;;;;;;5017323;28;20548;-52
2022/09/13 06:08:43;;;;;;;15.63;10.27;;;18.70;99.90;;;;;;5017122;28;20122;-55
2022/09/13 06:11:10;;;;;;;16.83;10.05;;;18.70;99.90;;;;;;5015043;28;20053;-50
2022/09/13 06:13:36;;;;;;;15.98;10.65;;;18.70;99.90;;;;;;5016834;28;20044;-43
2022/09/13 06:16:04;;;;;;;15.07;10.43;;;18.70;99.90;;;;;;5017126;28;20092;-52
2022/09/13 06:18:31;;;;;;;15.60;11.10;;;18.70;99.90;;;;;;5017179;28;20057;-50
2022/09/13 06:21:02;;;;;;;16.92;10.70;;;18.70;99.90;;;;;;5017079;28;20117;-52
2022/09/13 06:23:28;;;;;;;20.05;11.95;;;18.70;99.90;;;;;;5017204;28;20044;-46
2022/09/13 06:26:04;;;;;;;17.33;12.15;;;18.70;99.90;;;;;;5016892;28;20097;-46
2022/09/13 06:28:30;;;;;;;16.55;11.55;;;18.80;99.90;;;;;;5014646;28;20030;-51
2022/09/13 06:31:05;;;;;;;18.85;12.48;;;18.80;99.90;;;;;;5013545;28;20022;-53
2022/09/13 06:33:32;;;;;;;18.60;12.52;;;18.80;99.90;;;;;;5013807;28;20543;-43
2022/09/13 06:36:03;;;;;;;15.80;12.30;;;18.80;99.90;;;;;;5002514;28;20084;-43
2022/09/13 06:38:29;;;;;;;21.58;12.90;;;18.80;99.90;;;;;;5010135;28;20045;-49
2022/09/13 06:41:12;;;;;;;17.73;12.50;;;18.90;99.90;;;;;;5012875;28;20021;-50
2022/09/13 06:43:38;;;;;;;18.05;13.27;;;18.90;99.90;;;;;;5013203;28;20029;-53
2022/09/13 06:46:06;;;;;;;18.38;12.25;;;19.00;99.90;;;;;;4995100;28;20652;-56
2022/09/13 06:48:38;;;;;;;17.80;12.35;;;19.00;99.90;;;;;;4997093;28;20161;-51
2022/09/13 06:51:08;;;;;;;15.52;11.23;;;19.10;99.90;;;;;;4993263;28;20389;-47
2022/09/13 06:53:35;;;;;;;18.17;12.30;;;19.20;99.90;;;;;;4993762;28;20026;-45
2022/09/13 06:56:05;;;;;;;21.85;12.10;;;19.20;99.90;;;;;;4993466;28;20018;-52
2022/09/13 06:58:32;;;;;;;19.50;11.20;;;19.20;99.90;;;;;;4993145;28;20128;-54
2022/09/13 07:01:16;;;;;;;16.45;11.52;;;19.30;99.90;;;;;;4997010;28;20101;-48
2022/09/13 07:03:50;;;;;;;15.73;11.52;;;19.40;99.90;;;;;;4993111;28;20459;-50
2022/09/13 07:06:20;;;;;;;19.23;11.10;;;19.40;99.90;;;;;;4993355;28;20023;-53
2022/09/13 07:08:47;;;;;;;14.30;10.85;;;19.50;99.90;;;;;;4993519;28;20388;-50
2022/09/13 07:11:17;;;;;;;14.00;10.88;;;19.50;99.90;;;;;;4993302;28;20050;-42
2022/09/13 07:13:47;;;;;;;;;;;19.50;99.90;;;;;;4994039;28;20023;-53
2022/09/13 07:16:12;;;;;;;13.95;10.60;;;19.50;99.90;;;;;;4993523;28;19910;-57
2022/09/13 07:18:38;;;;;;;15.00;10.35;;;19.50;99.90;;;;;;4992905;28;20037;-49
2022/09/13 07:21:06;;;;;;;13.98;9.93;;;19.50;99.90;;;;;;4993538;28;20386;-52
2022/09/13 07:23:33;;;;;;;16.58;11.60;;;19.60;99.90;;;;;;4993855;28;20026;-50
2022/09/13 07:26:04;;;;;;;13.20;9.48;;;19.50;99.90;;;;;;4998657;28;20053;-49
2022/09/13 07:28:41;;;;;;;12.93;9.95;;;19.50;99.90;;;;;;4993435;28;20104;-48
2022/09/13 07:31:12;;;;;;;14.02;10.85;;;19.60;99.90;;;;;;4993094;28;20035;-48
2022/09/13 07:33:40;;;;;;;16.13;10.57;;;19.60;99.90;;;;;;5001270;28;20052;-49
2022/09/13 07:36:07;;;;;;;12.80;10.20;;;19.60;99.90;;;;;;5008824;28;20037;-48
2022/09/13 07:38:35;;;;;;;13.18;10.15;;;19.70;99.90;;;;;;5009188;28;20388;-45
2022/09/13 07:41:01;;;;;;;12.63;9.90;;;19.70;99.90;;;;;;5011107;28;20382;-50
2022/09/13 07:43:27;;;;;;;14.65;10.45;;;19.70;99.90;;;;;;4995658;28;20038;-46
2022/09/13 07:45:57;;;;;;;13.43;9.90;;;19.70;99.90;;;;;;4992046;28;20034;-47
2022/09/13 07:48:23;;;;;;;14.43;9.85;;;19.80;99.90;;;;;;4992117;28;20542;-48
2022/09/13 07:51:07;;;;;;;13.63;9.57;;;19.80;99.90;;;;;;4992146;28;20030;-45
2022/09/13 07:53:34;;;;;;;13.63;9.88;;;19.90;99.90;;;;;;5001869;28;20060;-51
2022/09/13 07:56:13;;;;;;;12.57;10.13;;;19.80;99.90;;;;;;4992188;28;20097;-49
2022/09/13 07:58:41;;;;;;;14.23;8.93;;;19.90;99.90;;;;;;4992375;28;20523;-45
2022/09/13 08:01:13;;;;;;;13.73;9.13;;;19.90;99.90;;;;;;4992512;28;20509;-50
2022/09/13 08:03:40;;;;;;;12.77;8.63;;;20.00;99.90;;;;;;4991942;28;20038;-47
2022/09/13 08:06:06;;;;;;;11.02;8.20;;;20.00;99.90;;;;;;5001486;28;20068;-49
2022/09/13 08:08:33;;;;;;;12.45;7.88;;;20.00;99.90;;;;;;5010152;28;20075;-48
2022/09/13 08:11:00;;;;;;;10.48;7.65;;;20.10;99.90;;;;;;4993056;28;20050;-48
2022/09/13 08:13:26;;;;;;;12.45;8.55;;;20.10;99.90;;;;;;4991441;28;20552;-45
2022/09/13 08:15:52;;;;;;;12.43;7.70;;;20.00;99.90;;;;;;4992229;28;20097;-48
2022/09/13 08:18:18;;;;;;;10.77;8.05;;;19.90;99.90;;;;;;4991896;28;20034;-46
2022/09/13 08:20:44;;;;;;;11.75;7.90;;;19.80;99.90;;;;;;4992148;28;20069;-50
2022/09/13 08:23:11;;;;;;;11.23;7.57;;;19.80;99.90;;;;;;4994271;28;20053;-52
2022/09/13 08:25:37;;;;;;;10.60;7.45;;;19.80;99.90;;;;;;4992170;28;20026;-50
2022/09/13 08:28:14;;;;;;;11.05;7.75;;;19.80;99.90;;;;;;4992183;28;20109;-51
2022/09/13 08:30:42;;;;;;;15.02;7.50;;;19.80;99.90;;;;;;4992078;28;20453;-46
2022/09/13 08:33:08;;;;;;;10.65;7.90;;;19.80;99.90;;;;;;5003897;28;20478;-47
2022/09/13 08:35:35;;;;;;;9.80;7.47;;;19.80;99.90;;;;;;5002645;28;20046;-50
2022/09/13 08:38:00;;;;;;;7.97;6.20;;;19.80;99.90;;;;;;5004179;28;20038;-49
2022/09/13 08:40:33;;;;;;;11.32;6.45;;;19.80;99.90;;;;;;4991803;28;20028;-51
2022/09/13 08:43:18;;;;;;;9.80;6.60;;;19.80;99.90;;;;;;4981690;28;20118;-52
2022/09/13 08:46:01;;;;;;;7.32;5.28;;;19.80;99.90;;;;;;4991019;28;20034;-49
2022/09/13 08:48:34;;;;;;;7.93;5.38;;;19.80;99.90;;;;;;4990472;28;20030;-57
2022/09/13 08:51:04;;;;;;;10.10;6.15;;;19.80;99.90;;;;;;4989724;28;20026;-55
2022/09/13 08:53:34;;;;;;;8.43;5.80;;;19.80;99.90;;;;;;5001240;28;20037;-60
2022/09/13 08:56:22;;;;;;;8.90;5.15;;;19.80;99.90;;;;;;4991187;28;20030;-57
2022/09/13 08:59:04;;;;;;;9.25;4.47;;;19.80;99.90;;;;;;5007484;28;20108;-51
2022/09/13 09:01:52;;;;;;;6.82;4.70;;;19.70;99.90;;;;;;5008401;28;20022;-52
2022/09/13 09:04:33;;;;;;;7.72;5.35;;;19.70;99.90;;;;;;4991794;28;20030;-53
2022/09/13 09:07:13;;;;;;;8.90;5.72;;;19.60;99.90;;;;;;4991238;28;20023;-46
2022/09/13 09:09:45;;;;;;;10.40;5.90;;;19.50;99.90;;;;;;4991372;28;20089;-47
2022/09/13 09:12:16;;;;;;;7.75;5.28;;;19.50;99.90;;;;;;4990887;28;20105;-48
2022/09/13 09:14:46;;;;;;;8.95;5.75;;;19.40;99.90;;;;;;4991639;28;20014;-58
2022/09/13 09:17:18;;;;;;;7.10;5.55;;;19.40;99.90;;;;;;4991669;28;20478;-47
2022/09/13 09:20:17;;;;;;;6.95;5.15;;;19.40;99.90;;;;;;4991471;28;20121;-47
2022/09/13 09:22:44;;;;;;;7.75;5.43;;;19.50;99.90;;;;;;4991134;28;20019;-44
2022/09/13 09:25:10;;;;;;;7.30;5.63;;;19.50;99.90;;;;;;4991388;28;20563;-50
2022/09/13 09:27:36;;;;;;;7.35;5.00;;;19.50;99.90;;;;;;4990879;28;20102;-50
2022/09/13 09:30:02;;;;;;;7.75;5.05;;;19.50;99.90;;;;;;4991332;28;20116;-48
2022/09/13 09:32:58;;;;;;;7.38;4.97;;;19.60;99.90;;;;;;4991318;28;20037;-49
2022/09/13 09:35:51;;;;;;;8.25;4.65;;;19.70;99.90;;;;;;5000941;28;20061;-49
2022/09/13 09:38:36;;;;;;;7.10;4.93;;;19.70;99.90;;;;;;5006989;28;20042;-50
2022/09/13 09:41:31;;;;;;;7.93;4.85;;;19.60;99.90;;;;;;5011092;28;20053;-48
2022/09/13 09:44:15;;;;;;;7.13;4.35;;;19.60;99.90;;;;;;4995555;28;20447;-48
2022/09/13 09:46:43;;;;;;;8.05;4.10;;;19.70;99.90;;;;;;5010589;28;20046;-50
2022/09/13 09:52:27;;;;;;;6.50;4.32;;;19.60;99.90;;;;;;5005075;28;20045;-46
2022/09/13 09:54:59;;;;;;;7.03;4.18;;;19.70;99.90;;;;;;5007769;28;20046;-50
2022/09/13 09:57:52;;;;;;;7.13;4.13;;;19.60;99.90;;;;;;5008126;28;20097;-50
2022/09/13 10:00:19;;;;;;;7.53;3.85;;;19.60;99.90;;;;;;5001487;28;20036;-47
2022/09/13 10:02:46;;;;;;;7.15;4.72;;;19.60;99.90;;;;;;4992730;28;20085;-50
2022/09/13 10:05:17;;;;;;;8.32;3.92;;;19.50;99.90;;;;;;4994340;28;20054;-50
2022/09/13 10:07:43;;;;;;;6.10;4.13;;;19.50;99.90;;;;;;4994963;28;20073;-51
2022/09/13 10:10:22;;;;;;;6.97;3.50;;;19.60;99.90;;;;;;4995956;28;20162;-56
2022/09/13 10:12:51;;;;;;;6.63;4.05;;;19.60;99.90;;;;;;5006512;28;20031;-47
2022/09/13 10:15:21;;;;;;;5.85;4.05;;;19.60;99.90;;;;;;5008272;28;20057;-47
2022/09/13 10:18:05;;;;;;;8.88;5.65;;;19.50;99.90;;;;;;5001469;28;20023;-51
2022/09/13 10:20:32;;;;;;;5.90;4.40;;;19.50;99.90;;;;;;4994460;28;20382;-46
2022/09/13 10:23:20;;;;;;;6.72;4.55;;;19.50;99.90;;;;;;4994491;28;20394;-52
2022/09/13 10:26:10;;;;;;;6.25;4.50;;;19.50;99.90;;;;;;4994581;28;20033;-55
2022/09/13 10:29:04;;;;;;;6.30;4.45;;;19.50;99.90;;;;;;4994435;28;20030;-46
2022/09/13 10:31:35;;;;;;;7.88;4.47;;;19.50;99.90;;;;;;4994337;28;20064;-49
2022/09/13 10:34:29;;;;;;;8.30;4.65;;;19.50;99.90;;;;;;4994185;28;20481;-48
2022/09/13 10:37:20;;;;;;;7.38;4.72;;;19.50;99.90;;;;;;4998800;28;20034;-46
2022/09/13 10:40:11;;;;;;;8.75;4.60;;;19.50;99.90;;;;;;5013560;28;20096;-44
2022/09/13 10:42:36;;;;;;;7.65;5.35;;;19.50;99.90;;;;;;5013849;28;20489;-49
2022/09/13 10:45:07;;;;;;;7.57;5.88;;;19.50;99.90;;;;;;5013691;28;20030;-52
2022/09/13 10:47:48;;;;;;;8.57;6.32;;;19.50;99.90;;;;;;5013475;28;20160;-46
2022/09/13 10:50:30;;;;;;;7.63;5.50;;;19.50;99.90;;;;;;5013593;28;20068;-46
2022/09/13 10:52:57;;;;;;;12.15;5.68;;;19.50;99.90;;;;;;5013944;28;20065;-44
2022/09/13 10:55:27;;;;;;;10.10;5.72;;;19.50;99.90;;;;;;5012501;28;20037;-50
2022/09/13 10:58:13;;;;;;;7.65;6.25;;;19.60;99.90;;;;;;5012499;28;20021;-50
2022/09/13 11:01:12;;;;;;;10.20;6.35;;;19.60;99.90;;;;;;4994689;28;20446;-49
2022/09/13 11:04:02;;;;;;;11.63;6.53;;;19.70;99.90;;;;;;5012428;28;20414;-47
2022/09/13 11:06:34;;;;;;;7.72;6.30;;;19.60;99.90;;;;;;5012826;28;20113;-45
2022/09/13 11:09:16;;;;;;;10.55;6.55;;;19.50;99.90;;;;;;5012602;28;20049;-54
2022/09/13 11:12:14;;;;;;;8.95;7.25;;;19.50;99.90;;;;;;5013307;28;20042;-50
2022/09/13 11:15:01;;;;;;;12.25;7.63;;;19.50;99.90;;;;;;4999912;28;20026;-54
2022/09/13 11:17:59;;;;;;;11.05;7.60;;;19.40;99.90;;;;;;5012180;28;20014;-50
2022/09/13 11:20:50;;;;;;;12.40;7.28;;;19.30;99.90;;;;;;5004643;28;20058;-49
2022/09/13 11:23:54;;;;;;;10.95;7.40;;;19.30;99.90;;;;;;5000980;28;20123;-48
2022/09/13 11:26:29;;;;;;;9.30;6.90;;;19.40;99.90;;;;;;5012893;28;20516;-50
2022/09/13 11:29:05;;;;;;;8.68;6.55;;;19.40;99.90;;;;;;5012936;28;20029;-54
2022/09/13 11:32:04;;;;;;;12.55;7.60;;;19.40;99.90;;;;;;5012904;28;20030;-52
2022/09/13 11:35:08;;;;;;;12.68;6.97;;;19.50;99.90;;;;;;5011309;28;20033;-51
2022/09/13 11:37:34;;;;;;;9.35;7.05;;;19.50;99.90;;;;;;4906978;29;20548;-52
2022/09/13 11:40:14;;;;;;;9.45;6.60;;;19.50;99.90;;;;;;4913868;29;20048;-47
2022/09/13 11:42:51;;;;;;;10.82;6.30;;;19.60;99.90;;;;;;4962231;28;20037;-54
2022/09/13 11:45:22;;;;;;;10.43;6.68;;;19.70;99.90;;;;;;5001185;28;20031;-58
2022/09/13 11:48:14;;;;;;;9.20;7.22;;;19.70;99.90;;;;;;4994516;28;20021;-55
2022/09/13 11:51:12;;;;;;;9.55;6.38;;;19.80;99.90;;;;;;4992360;28;20479;-44
2022/09/13 11:54:05;;;;;;;8.73;6.70;;;19.80;99.90;;;;;;4993049;28;20026;-46
2022/09/13 11:56:39;;;;;;;11.25;6.43;;;19.70;99.90;;;;;;4993029;28;20034;-54
2022/09/13 11:59:18;;;;;;;8.93;6.50;;;19.70;99.90;;;;;;4991995;28;20030;-46
2022/09/13 12:01:49;;;;;;;10.20;7.22;;;19.80;99.90;;;;;;4991726;28;20050;-56
2022/09/13 12:04:23;;;;;;;10.15;6.75;;;19.80;99.90;;;;;;4991511;28;20037;-46
2022/09/13 12:06:56;;;;;;;9.88;6.60;;;19.80;99.90;;;;;;4989922;28;20049;-46
2022/09/13 12:09:28;;;;;;;10.02;6.63;;;19.80;99.90;;;;;;4989793;28;20072;-50
2022/09/13 12:12:09;;;;;;;9.85;6.85;;;19.90;99.90;;;;;;4990231;28;20035;-54
2022/09/13 12:14:44;;;;;;;9.35;7.00;;;20.00;99.90;;;;;;4989769;28;20484;-44
2022/09/13 12:17:27;;;;;;;11.23;7.10;;;20.00;99.90;;;;;;4995199;28;20027;-48
2022/09/13 12:19:56;;;;;;;11.48;6.55;;;20.10;99.90;;;;;;4990709;28;20049;-43
2022/09/13 12:22:29;;;;;;;9.00;6.07;;;20.10;99.90;;;;;;4991779;28;20026;-53
2022/09/13 12:24:57;;;;;;;8.43;5.90;;;20.10;99.90;;;;;;4991914;28;20050;-45
2022/09/13 12:27:36;;;;;;;9.05;5.45;;;20.10;99.90;;;;;;4991902;28;20030;-49
2022/09/13 12:30:19;;;;;;;7.75;5.80;;;20.10;99.90;;;;;;4992113;28;20104;-49
2022/09/13 12:32:47;;;;;;;10.10;5.63;;;20.10;99.90;;;;;;4982273;28;20033;-45
2022/09/13 12:35:29;;;;;;;9.20;5.82;;;20.10;99.90;;;;;;4992099;28;20124;-45
2022/09/13 12:38:13;;;;;;;7.10;5.00;;;20.10;99.90;;;;;;5004618;28;20029;-49
2022/09/13 12:41:10;;;;;;;9.90;4.75;;;20.30;99.90;;;;;;4998747;28;20478;-45
2022/09/13 12:44:03;;;;;;;6.28;3.90;;;20.20;99.90;;;;;;5011622;28;20547;-44
2022/09/13 12:46:56;;;;;;;7.72;4.07;;;20.20;99.90;;;;;;5011410;28;20033;-47
2022/09/13 12:49:33;;;;;;;6.53;3.80;;;20.10;99.90;;;;;;5008568;28;20038;-44
2022/09/13 12:52:30;;;;;;;4.85;3.17;;;20.00;99.90;;;;;;5011428;28;20024;-50
2022/09/13 12:55:17;;;;;;;4.35;3.13;;;19.80;99.90;;;;;;5010407;28;20042;-50
2022/09/13 12:58:15;;;;;;;6.32;3.80;;;19.90;99.90;;;;;;4999431;28;20029;-48
2022/09/13 13:01:08;;;;;;;6.57;3.00;;;19.90;99.90;;;;;;5011196;28;20498;-51
2022/09/13 13:03:43;;;;;;;4.47;3.15;;;19.80;99.90;;;;;;5005426;28;20276;-46
2022/09/13 13:06:26;;;;;;;5.57;3.10;;;19.80;99.90;;;;;;4997598;28;20112;-47
2022/09/13 13:08:56;;;;;;;4.88;2.92;;;19.70;99.90;;;;;;5008651;28;20143;-45
2022/09/13 13:11:40;;;;;;;4.65;2.80;;;19.60;99.90;;;;;;5007571;28;20136;-48
2022/09/13 13:14:08;;;;;;;6.30;2.85;;;19.60;99.90;;;;;;4994007;28;20441;-44
2022/09/13 13:16:39;;;;;;;4.88;2.97;;;19.60;99.90;;;;;;4991484;28;20571;-45
2022/09/13 13:19:30;;;;;;;5.90;2.97;;;19.70;99.90;;;;;;5007542;28;20132;-49